TimeEDT,TemperatureF,Dew PointF,Humidity,Sea Level PressureIn,VisibilityMPH,Wind Direction,Wind SpeedMPH,Gust SpeedMPH,PrecipitationIn,Events,Conditions,WindDirDegrees,DateUTC
12:54 AM,37.4,37.4,100,-9999,0.0,SW,15.0,-,N/A,Fog,Fog,220,2013-10-16 04:54:00
1:51 AM,37.4,37.4,100,-9999,0.0,SSW,13.8,-,N/A,Fog,Fog,210,2013-10-16 05:51:00
2:53 AM,37.8,36.5,95,-9999,100.0,SW,11.5,-,N/A,,Overcast,230,2013-10-16 06:53:00
3:53 AM,42.8,30.2,61,-9999,100.0,SW,11.5,-,N/A,,Overcast,220,2013-10-16 07:53:00
4:56 AM,39.9,38.5,95,-9999,100.0,SSW,10.4,21.9,N/A,Fog,Patches of Fog,210,2013-10-16 08:56:00
5:47 AM,39.2,39.2,100,-9999,0.1,SSW,16.1,23.0,N/A,Fog,Fog,200,2013-10-16 09:47:00
6:56 AM,39.2,39.2,100,-9999,0.1,SSW,19.6,-,N/A,Fog,Fog,200,2013-10-16 10:56:00
7:50 AM,39.2,38.5,97,-9999,100.0,South,25.3,-,N/A,,Mostly Cloudy,190,2013-10-16 11:50:00
8:52 AM,42.8,32.0,66,-9999,100.0,South,29.9,-,N/A,,Scattered Clouds,190,2013-10-16 12:52:00
9:50 AM,42.8,19.4,39,-9999,90.0,South,34.5,-,N/A,,Mostly Cloudy,190,2013-10-16 13:50:00
10:51 AM,44.6,-2.2,14,-9999,90.0,South,33.4,-,N/A,,Mostly Cloudy,190,2013-10-16 14:51:00
11:52 AM,44.6,8.6,23,-9999,90.0,SSW,31.1,-,N/A,,Mostly Cloudy,200,2013-10-16 15:52:00
12:51 PM,44.6,14.0,29,-9999,80.0,SSW,27.6,-,N/A,,Mostly Cloudy,200,2013-10-16 16:51:00
1:51 PM,44.6,8.6,23,-9999,80.0,SW,23.0,27.6,N/A,,Mostly Cloudy,220,2013-10-16 17:51:00
2:52 PM,44.6,12.2,27,-9999,80.0,SW,27.6,34.5,N/A,,Mostly Cloudy,220,2013-10-16 18:52:00
3:53 PM,46.4,1.4,16,-9999,80.0,WSW,27.6,34.5,N/A,,Mostly Cloudy,240,2013-10-16 19:53:00
4:50 PM,46.4,10.4,23,-9999,90.0,WSW,27.6,-,N/A,,Mostly Cloudy,250,2013-10-16 20:50:00
5:54 PM,44.6,30.2,57,-9999,90.0,WSW,28.8,-,N/A,,Mostly Cloudy,250,2013-10-16 21:54:00
6:54 PM,44.6,33.8,66,-9999,95.0,WSW,28.8,35.7,N/A,,Mostly Cloudy,250,2013-10-16 22:54:00
7:53 PM,44.6,26.6,49,-9999,85.0,WSW,33.4,39.1,N/A,,Mostly Cloudy,240,2013-10-16 23:53:00
8:53 PM,46.4,33.8,62,-9999,85.0,SW,33.4,41.4,N/A,,Mostly Cloudy,230,2013-10-17 00:53:00
9:55 PM,44.6,32.0,61,-9999,80.0,WSW,38.0,-,N/A,,Mostly Cloudy,250,2013-10-17 01:55:00
10:55 PM,44.6,32.0,61,-9999,75.0,WSW,34.5,-,N/A,,Mostly Cloudy,240,2013-10-17 02:55:00
11:54 PM,39.2,35.6,87,-9999,75.0,WSW,34.5,40.3,N/A,,Mostly Cloudy,240,2013-10-17 03:54:00